createdAt,value
2023-03-21T00:00:28.812Z,67.87
2023-03-21T00:02:55.427Z,68.69
2023-03-21T00:05:22.139Z,68.87
2023-03-21T00:07:48.615Z,68.09
2023-03-21T00:10:19.623Z,68.30
2023-03-21T00:12:55.348Z,69.01
2023-03-21T00:15:24.910Z,70.64
2023-03-21T00:18:11.274Z,72.09
2023-03-21T00:20:39.078Z,72.88
2023-03-21T00:23:05.754Z,73.18
2023-03-21T00:25:32.902Z,71.53
2023-03-21T00:28:07.984Z,71.55
2023-03-21T00:30:35.053Z,71.41
2023-03-21T00:33:05.954Z,71.87
2023-03-21T00:36:06.322Z,71.83
2023-03-21T00:38:26.304Z,72.47
2023-03-21T00:40:53.523Z,72.90
2023-03-21T00:43:23.283Z,73.67
2023-03-21T00:45:51.350Z,74.26
2023-03-21T00:48:18.703Z,74.54
2023-03-21T00:50:49.854Z,74.03
2023-03-21T00:53:16.392Z,72.65
2023-03-21T00:55:42.888Z,72.61
2023-03-21T00:58:09.445Z,72.88
2023-03-21T01:00:39.230Z,72.54
2023-03-21T01:03:23.173Z,73.01
2023-03-21T01:06:06.751Z,73.48
2023-03-21T01:08:50.713Z,72.56
2023-03-21T01:11:22.560Z,71.98
2023-03-21T01:14:20.810Z,72.19
2023-03-21T01:16:37.033Z,72.53
2023-03-21T01:19:09.171Z,72.71
2023-03-21T01:21:38.684Z,73.35
2023-03-21T01:24:05.796Z,73.26
2023-03-21T01:26:32.661Z,73.46
2023-03-21T01:28:59.171Z,72.51
2023-03-21T01:31:26.036Z,71.99
2023-03-21T01:33:52.597Z,72.10
2023-03-21T01:36:25.863Z,71.37
2023-03-21T01:38:57.087Z,72.17
2023-03-21T01:41:41.988Z,73.21
2023-03-21T01:44:18.964Z,74.33
2023-03-21T01:47:07.335Z,74.59
2023-03-21T01:50:03.858Z,74.32
2023-03-21T01:52:49.841Z,73.25
2023-03-21T01:55:23.429Z,72.92
2023-03-21T01:58:05.776Z,72.60
2023-03-21T02:00:56.754Z,72.85
2023-03-21T02:03:38.063Z,72.15
2023-03-21T02:06:31.687Z,72.17
2023-03-21T02:09:09.978Z,73.10
2023-03-21T02:11:37.948Z,74.53
2023-03-21T02:14:06.978Z,74.89
2023-03-21T02:17:14.645Z,75.52
2023-03-21T02:20:01.770Z,75.53
2023-03-21T02:23:00.509Z,74.04
2023-03-21T02:25:46.432Z,72.74
2023-03-21T02:28:33.764Z,73.46
2023-03-21T02:31:26.782Z,73.39
2023-03-21T02:34:00.841Z,73.42
2023-03-21T02:37:01.588Z,74.65
2023-03-21T02:39:51.793Z,74.77
2023-03-21T02:42:59.393Z,74.98
2023-03-21T02:45:40.181Z,74.54
2023-03-21T02:48:25.470Z,73.85
2023-03-21T02:50:59.773Z,74.04
2023-03-21T02:53:31.726Z,74.35
2023-03-21T02:56:00.442Z,73.96
2023-03-21T02:58:30.720Z,74.58
2023-03-21T03:00:58.508Z,74.84
2023-03-21T03:03:37.054Z,75.24
2023-03-21T03:06:20.655Z,75.58
2023-03-21T03:09:30.741Z,76.50
2023-03-21T03:12:14.588Z,76.20
2023-03-21T03:15:06.868Z,76.19
2023-03-21T03:17:59.843Z,76.20
2023-03-21T03:20:47.711Z,75.84
2023-03-21T03:23:26.317Z,74.91
2023-03-21T03:26:08.491Z,75.86
2023-03-21T03:28:44.809Z,75.30
2023-03-21T03:31:21.804Z,75.10
2023-03-21T03:33:55.853Z,75.71
2023-03-21T03:36:32.603Z,76.19
2023-03-21T03:39:09.004Z,75.71
2023-03-21T03:42:18.491Z,75.28
2023-03-21T03:44:41.910Z,74.84
2023-03-21T03:47:22.874Z,74.40
2023-03-21T03:50:13.998Z,74.83
2023-03-21T03:52:56.096Z,74.87
2023-03-21T03:55:28.185Z,74.95
2023-03-21T03:57:58.981Z,74.64
2023-03-21T04:00:27.127Z,75.44
2023-03-21T04:02:54.078Z,74.84
2023-03-21T04:05:24.389Z,74.76
2023-03-21T04:07:51.236Z,76.25
2023-03-21T04:10:22.712Z,76.59
2023-03-21T04:12:49.978Z,76.40
2023-03-21T04:15:25.191Z,76.12
2023-03-21T04:17:59.742Z,75.19
2023-03-21T04:20:36.152Z,75.48
2023-03-21T04:23:09.937Z,75.84
2023-03-21T04:25:44.729Z,75.59
2023-03-21T04:28:17.307Z,75.74
2023-03-21T04:31:02.236Z,75.64
2023-03-21T04:33:38.382Z,76.50
2023-03-21T04:36:07.002Z,76.97
2023-03-21T04:38:33.936Z,76.67
2023-03-21T04:41:03.753Z,76.30
2023-03-21T04:43:30.939Z,75.78
2023-03-21T04:45:57.847Z,76.61
2023-03-21T04:48:24.662Z,77.08
2023-03-21T04:50:52.034Z,77.69
2023-03-21T04:53:18.459Z,77.35
2023-03-21T04:55:45.245Z,76.82
2023-03-21T04:58:11.961Z,75.78
2023-03-21T05:00:39.037Z,76.03
2023-03-21T05:03:08.998Z,76.69
2023-03-21T05:05:37.927Z,76.17
2023-03-21T05:08:06.090Z,76.25
2023-03-21T05:13:00.498Z,76.97
2023-03-21T05:15:27.915Z,77.33
2023-03-21T05:17:54.540Z,77.03
2023-03-21T05:20:21.325Z,77.27
2023-03-21T05:22:51.440Z,77.56
2023-03-21T05:25:35.077Z,76.96
2023-03-21T05:28:18.196Z,76.19
2023-03-21T05:30:46.692Z,76.08
2023-03-21T05:33:13.745Z,76.19
2023-03-21T05:35:40.954Z,75.76
2023-03-21T05:38:10.096Z,75.52
2023-03-21T05:40:50.920Z,76.10
2023-03-21T05:43:17.948Z,75.51
2023-03-21T05:45:44.923Z,76.02
2023-03-21T05:48:11.399Z,75.63
2023-03-21T05:50:54.508Z,75.20
2023-03-21T05:53:23.310Z,75.36
2023-03-21T05:55:50.039Z,74.88
2023-03-21T05:58:34.052Z,75.26
2023-03-21T06:01:00.571Z,75.76
2023-03-21T06:03:31.810Z,75.75
2023-03-21T06:06:14.635Z,76.18
2023-03-21T06:08:51.020Z,76.40
2023-03-21T06:11:28.688Z,75.86
2023-03-21T06:14:13.400Z,76.65
2023-03-21T06:16:40.870Z,76.22
2023-03-21T06:19:07.539Z,75.93
2023-03-21T06:21:45.884Z,75.36
2023-03-21T06:24:12.333Z,75.79
2023-03-21T06:26:42.355Z,75.21
2023-03-21T06:29:09.456Z,75.56
2023-03-21T06:31:36.126Z,75.63
2023-03-21T06:34:04.637Z,75.65
2023-03-21T06:36:32.069Z,75.23
2023-03-21T06:38:58.745Z,75.66
2023-03-21T06:41:25.684Z,75.72
2023-03-21T06:44:02.734Z,75.84
2023-03-21T06:46:33.487Z,75.77
2023-03-21T06:48:59.968Z,76.31
2023-03-21T06:51:29.226Z,75.94
2023-03-21T06:54:05.512Z,75.89
2023-03-21T06:56:47.593Z,74.99
2023-03-21T06:59:21.546Z,75.02
2023-03-21T07:01:55.272Z,75.18
2023-03-21T07:04:21.767Z,75.46
2023-03-21T07:06:49.528Z,75.44
2023-03-21T07:09:18.160Z,74.99
2023-03-21T07:11:45.483Z,75.35
2023-03-21T07:14:11.928Z,74.79
2023-03-21T07:16:38.459Z,74.76
2023-03-21T07:19:05.047Z,75.33
2023-03-21T07:21:32.301Z,74.93
2023-03-21T07:24:00.377Z,74.77
2023-03-21T07:26:26.921Z,74.91
2023-03-21T07:28:53.515Z,74.34
2023-03-21T07:31:20.958Z,74.63
2023-03-21T07:33:48.226Z,74.05
2023-03-21T07:36:16.223Z,74.16
2023-03-21T07:38:43.918Z,74.00
2023-03-21T07:41:10.659Z,74.04
2023-03-21T07:43:39.179Z,73.99
2023-03-21T07:46:09.499Z,74.02
2023-03-21T07:48:37.178Z,73.65
2023-03-21T07:51:04.025Z,73.93
2023-03-21T07:53:30.558Z,73.65
2023-03-21T07:55:57.055Z,74.41
2023-03-21T07:58:24.776Z,74.58
2023-03-21T08:00:51.959Z,74.08
2023-03-21T08:03:18.915Z,73.39
2023-03-21T08:05:46.235Z,73.19
2023-03-21T08:08:13.140Z,73.09
2023-03-21T08:10:39.870Z,72.18
2023-03-21T08:13:06.368Z,72.46
2023-03-21T08:15:32.978Z,72.35
2023-03-21T08:18:00.600Z,71.48
2023-03-21T08:20:28.032Z,71.11
2023-03-21T08:22:54.661Z,70.42
2023-03-21T08:25:22.590Z,70.45
2023-03-21T08:27:50.312Z,70.15
2023-03-21T08:30:19.663Z,69.24
2023-03-21T08:32:46.300Z,69.20
2023-03-21T08:35:15.870Z,68.32
2023-03-21T08:37:43.058Z,67.18
2023-03-21T08:40:13.273Z,66.69
2023-03-21T08:42:43.825Z,65.84
2023-03-21T08:45:12.058Z,64.27
2023-03-21T08:47:38.846Z,64.33
2023-03-21T08:50:07.699Z,62.01
2023-03-21T08:52:34.612Z,61.80
2023-03-21T08:55:02.264Z,62.05
2023-03-21T08:57:29.554Z,60.81
2023-03-21T08:59:56.178Z,60.31
2023-03-21T09:02:23.009Z,59.97
2023-03-21T09:04:49.800Z,61.08
2023-03-21T09:07:17.061Z,59.68
2023-03-21T09:09:43.763Z,59.82
2023-03-21T09:12:11.341Z,59.61
2023-03-21T09:14:37.810Z,59.11
2023-03-21T09:17:04.243Z,58.12
2023-03-21T09:19:31.862Z,57.11
2023-03-21T09:21:58.692Z,56.37
2023-03-21T09:24:26.386Z,57.95
2023-03-21T09:26:52.938Z,59.27
2023-03-21T09:29:21.337Z,59.88
2023-03-21T09:31:47.894Z,60.71
2023-03-21T09:34:15.656Z,60.87
2023-03-21T09:36:44.222Z,61.16
2023-03-21T09:39:11.957Z,60.14
2023-03-21T09:41:56.595Z,59.92
2023-03-21T09:44:45.007Z,59.66
2023-03-21T09:47:20.566Z,60.17
2023-03-21T09:49:56.595Z,60.02
2023-03-21T09:52:32.680Z,60.02
2023-03-21T09:54:59.711Z,59.26
2023-03-21T09:57:39.985Z,60.09
2023-03-21T10:00:20.523Z,59.76
2023-03-21T10:02:56.958Z,59.57
2023-03-21T10:05:30.124Z,59.30
2023-03-21T10:08:13.212Z,58.93
2023-03-21T10:10:48.023Z,58.94
2023-03-21T10:13:22.534Z,59.06
2023-03-21T10:15:49.233Z,59.14
2023-03-21T10:18:26.750Z,58.42
2023-03-21T10:20:54.592Z,59.05
2023-03-21T10:23:25.597Z,58.04
2023-03-21T10:26:02.005Z,58.28
2023-03-21T10:28:42.329Z,57.68
2023-03-21T10:31:21.094Z,57.46
2023-03-21T10:33:50.234Z,57.40
2023-03-21T10:36:30.081Z,56.85
2023-03-21T10:39:04.971Z,56.74
2023-03-21T10:41:32.999Z,55.93
2023-03-21T10:44:09.580Z,55.63
2023-03-21T10:46:36.518Z,54.69
2023-03-21T10:49:06.983Z,54.83
2023-03-21T10:51:36.669Z,55.32
2023-03-21T10:54:12.189Z,55.30
2023-03-21T10:56:43.601Z,54.52
2023-03-21T10:59:20.441Z,54.48
2023-03-21T11:01:51.555Z,53.42
2023-03-21T11:04:26.621Z,52.82
2023-03-21T11:06:57.586Z,53.05
2023-03-21T11:09:26.625Z,52.23
2023-03-21T11:12:01.913Z,51.05
2023-03-21T11:14:49.776Z,49.57
2023-03-21T11:17:19.232Z,50.71
2023-03-21T11:19:51.882Z,50.90
2023-03-21T11:22:21.325Z,49.14
2023-03-21T11:24:52.509Z,50.12
2023-03-21T11:27:19.482Z,47.52
2023-03-21T11:29:49.402Z,49.53
2023-03-21T11:32:35.826Z,48.39
2023-03-21T11:35:06.721Z,48.65
2023-03-21T11:37:47.067Z,48.86
2023-03-21T11:40:13.460Z,46.98
2023-03-21T11:42:44.272Z,45.80
2023-03-21T11:45:17.764Z,46.29
2023-03-21T11:47:45.870Z,43.90
2023-03-21T11:50:33.790Z,45.75
2023-03-21T11:53:15.598Z,43.28
2023-03-21T11:55:58.251Z,41.17
2023-03-21T11:58:44.114Z,41.64
2023-03-21T12:01:41.968Z,37.01
2023-03-21T12:04:28.999Z,35.16
2023-03-21T12:07:16.265Z,35.42
2023-03-21T12:09:47.629Z,34.92
2023-03-21T12:12:36.544Z,35.32
2023-03-21T12:15:24.249Z,33.97
2023-03-21T12:18:14.650Z,34.62
2023-03-21T12:20:56.070Z,32.98
2023-03-21T12:23:57.934Z,32.79
2023-03-21T12:27:01.936Z,32.82
2023-03-21T12:29:49.820Z,33.20
2023-03-21T12:32:25.687Z,31.71
2023-03-21T12:34:54.810Z,31.34
2023-03-21T12:37:41.604Z,30.31
2023-03-21T12:40:44.489Z,33.03
2023-03-21T12:43:24.712Z,30.54
2023-03-21T12:45:56.279Z,31.59
2023-03-21T12:48:28.193Z,31.60
2023-03-21T12:50:57.492Z,29.45
2023-03-21T12:53:39.400Z,29.74
2023-03-21T12:56:11.841Z,29.55
2023-03-21T12:58:49.220Z,29.87
2023-03-21T13:01:19.518Z,28.52
2023-03-21T13:03:59.263Z,28.86
2023-03-21T13:06:27.792Z,28.63
2023-03-21T13:09:08.362Z,27.51
2023-03-21T13:11:35.474Z,29.29
2023-03-21T13:14:05.888Z,27.89
2023-03-21T13:16:41.001Z,28.58
2023-03-21T13:19:18.520Z,28.48
2023-03-21T13:21:44.911Z,26.78
2023-03-21T13:24:18.831Z,27.92
2023-03-21T13:27:00.651Z,26.48
2023-03-21T13:29:32.170Z,25.54
2023-03-21T13:32:16.924Z,24.87
2023-03-21T13:34:44.619Z,23.11
2023-03-21T13:37:17.465Z,22.36
2023-03-21T13:39:46.633Z,23.05
2023-03-21T13:42:21.955Z,23.77
2023-03-21T13:44:53.656Z,23.55
2023-03-21T13:47:28.534Z,24.23
2023-03-21T13:50:19.869Z,24.68
2023-03-21T13:53:19.275Z,24.36
2023-03-21T13:55:57.332Z,24.02
2023-03-21T13:58:45.761Z,23.22
2023-03-21T14:01:27.538Z,24.72
2023-03-21T14:04:15.490Z,25.55
2023-03-21T14:07:13.511Z,26.38
2023-03-21T14:09:48.566Z,26.93
2023-03-21T14:12:18.871Z,27.77
2023-03-21T14:15:29.830Z,27.13
2023-03-21T14:17:59.432Z,27.83
2023-03-21T14:20:29.204Z,27.89
2023-03-21T14:22:56.137Z,26.69
2023-03-21T14:25:29.253Z,27.46
2023-03-21T14:28:01.226Z,27.90
2023-03-21T14:30:33.641Z,26.41
2023-03-21T14:33:18.570Z,25.39
2023-03-21T14:35:47.047Z,25.69
2023-03-21T14:38:26.353Z,25.81
2023-03-21T14:40:55.245Z,24.47
2023-03-21T14:43:23.780Z,24.55
2023-03-21T14:45:53.076Z,25.06
2023-03-21T14:48:19.938Z,24.46
2023-03-21T14:50:53.944Z,24.00
2023-03-21T14:53:25.271Z,24.76
2023-03-21T14:56:03.396Z,26.06
2023-03-21T14:58:31.156Z,27.55
2023-03-21T15:01:03.578Z,27.64
2023-03-21T15:03:31.083Z,28.10
2023-03-21T15:05:59.005Z,28.59
2023-03-21T15:08:27.770Z,29.57
2023-03-21T15:11:07.904Z,30.07
2023-03-21T15:13:40.414Z,31.37
2023-03-21T15:16:07.712Z,31.42
2023-03-21T15:18:38.010Z,31.99
2023-03-21T15:21:30.148Z,31.50
2023-03-21T15:24:05.060Z,32.61
2023-03-21T15:26:31.857Z,32.25
2023-03-21T15:28:59.755Z,31.98
2023-03-21T15:31:34.053Z,31.92
2023-03-21T15:34:01.714Z,32.24
2023-03-21T15:36:33.568Z,31.54
2023-03-21T15:39:14.267Z,32.36
2023-03-21T15:41:43.006Z,32.29
2023-03-21T15:44:10.105Z,32.60
2023-03-21T15:46:44.787Z,33.63
2023-03-21T15:49:21.134Z,33.53
2023-03-21T15:51:54.006Z,33.67
2023-03-21T15:54:27.134Z,33.03
2023-03-21T15:57:04.369Z,33.29
2023-03-21T15:59:35.482Z,33.12
2023-03-21T16:02:03.590Z,33.84
2023-03-21T16:04:31.332Z,34.02
2023-03-21T16:07:04.089Z,35.29
2023-03-21T16:09:42.957Z,35.89
2023-03-21T16:12:15.690Z,36.04
2023-03-21T16:14:42.944Z,35.43
2023-03-21T16:17:33.653Z,36.13
2023-03-21T16:20:00.923Z,36.22
2023-03-21T16:22:28.879Z,36.36
2023-03-21T16:24:55.576Z,36.92
2023-03-21T16:27:22.104Z,37.86
2023-03-21T16:29:48.621Z,37.56
2023-03-21T16:32:17.363Z,38.12
2023-03-21T16:34:44.480Z,37.97
2023-03-21T16:37:11.998Z,38.77
2023-03-21T16:39:38.650Z,37.68
2023-03-21T16:42:05.678Z,38.52
2023-03-21T16:44:33.693Z,38.68
2023-03-21T16:47:02.363Z,38.72
2023-03-21T16:49:28.986Z,39.28
2023-03-21T16:51:57.305Z,39.94
2023-03-21T16:54:24.289Z,39.72
2023-03-21T16:56:53.574Z,39.53
2023-03-21T16:59:20.621Z,40.27
2023-03-21T17:01:48.496Z,40.55
2023-03-21T17:04:16.788Z,40.47
2023-03-21T17:06:49.294Z,40.83
2023-03-21T17:09:17.885Z,41.72
2023-03-21T17:11:44.975Z,41.63
2023-03-21T17:14:13.821Z,41.46
2023-03-21T17:16:42.791Z,42.12
2023-03-21T17:19:27.934Z,42.54
2023-03-21T17:21:55.300Z,42.29
2023-03-21T17:24:23.542Z,43.15
2023-03-21T17:26:50.100Z,43.06
2023-03-21T17:29:16.539Z,42.93
2023-03-21T17:31:47.235Z,43.42
2023-03-21T17:34:14.266Z,43.80
2023-03-21T17:36:42.270Z,44.16
2023-03-21T17:39:14.995Z,44.18
2023-03-21T17:41:41.481Z,45.09
2023-03-21T17:44:08.132Z,45.33
2023-03-21T17:46:39.326Z,46.67
2023-03-21T17:49:06.569Z,46.98
2023-03-21T17:51:33.170Z,45.69
2023-03-21T17:54:00.013Z,46.06
2023-03-21T17:56:29.864Z,46.07
2023-03-21T17:58:58.513Z,46.64
2023-03-21T18:01:25.159Z,47.14
2023-03-21T18:03:51.737Z,47.35
2023-03-21T18:06:20.753Z,47.10
2023-03-21T18:08:48.903Z,47.27
2023-03-21T18:11:16.953Z,46.76
2023-03-21T18:13:44.110Z,47.12
2023-03-21T18:16:15.077Z,46.73
2023-03-21T18:18:41.631Z,46.98
2023-03-21T18:21:10.690Z,47.16
2023-03-21T18:23:38.407Z,47.51
2023-03-21T18:26:06.517Z,47.89
2023-03-21T18:28:33.537Z,47.77
2023-03-21T18:31:10.537Z,47.36
2023-03-21T18:33:40.986Z,47.57
2023-03-21T18:36:09.545Z,46.91
2023-03-21T18:38:36.939Z,47.79
2023-03-21T18:41:04.241Z,48.10
2023-03-21T18:46:17.868Z,48.18
2023-03-21T18:48:44.534Z,47.79
2023-03-21T18:51:11.422Z,47.85
2023-03-21T18:53:37.994Z,48.64
2023-03-21T18:56:09.957Z,48.53
2023-03-21T18:58:37.247Z,49.07
2023-03-21T19:01:05.072Z,49.25
2023-03-21T19:03:36.764Z,48.95
2023-03-21T19:06:05.477Z,50.30
2023-03-21T19:08:34.776Z,49.84
2023-03-21T19:11:06.041Z,51.57
2023-03-21T19:13:33.646Z,52.76
2023-03-21T19:16:02.504Z,54.48
2023-03-21T19:18:50.381Z,54.43
2023-03-21T19:21:19.829Z,53.49
2023-03-21T19:26:33.049Z,53.20
2023-03-21T19:28:59.495Z,53.89
2023-03-21T19:31:26.781Z,53.37
2023-03-21T19:33:53.362Z,54.62
2023-03-21T19:36:22.927Z,55.36
2023-03-21T19:38:50.529Z,54.76
2023-03-21T19:41:18.398Z,54.26
2023-03-21T19:43:53.762Z,53.88
2023-03-21T19:46:24.481Z,56.00
2023-03-21T19:48:51.090Z,56.50
2023-03-21T19:51:28.178Z,55.62
2023-03-21T19:53:56.297Z,54.63
2023-03-21T19:56:26.590Z,54.26
2023-03-21T19:58:56.930Z,53.67
2023-03-21T20:01:24.768Z,52.62
2023-03-21T20:03:52.134Z,52.98
2023-03-21T20:06:18.771Z,52.50
2023-03-21T20:11:32.571Z,53.48
2023-03-21T20:13:59.872Z,52.44
2023-03-21T20:16:33.693Z,52.60
2023-03-21T20:19:00.903Z,53.83
2023-03-21T20:21:34.824Z,54.70
2023-03-21T20:24:03.663Z,52.34
2023-03-21T20:26:31.040Z,53.69
2023-03-21T20:29:19.689Z,55.26
2023-03-21T20:31:44.338Z,56.73
2023-03-21T20:34:10.803Z,56.87
2023-03-21T20:36:40.565Z,57.45
2023-03-21T20:39:07.698Z,58.13
2023-03-21T20:41:34.296Z,58.17
2023-03-21T20:46:47.596Z,58.05
2023-03-21T20:49:15.294Z,57.49
2023-03-21T20:54:29.699Z,58.35
2023-03-21T20:56:56.735Z,58.23
2023-03-21T20:59:27.250Z,58.36
2023-03-21T21:01:58.175Z,58.90
2023-03-21T21:04:47.000Z,59.07
2023-03-21T21:07:17.502Z,58.76
2023-03-21T21:09:45.047Z,58.85
2023-03-21T21:12:12.552Z,59.31
2023-03-21T21:14:39.283Z,58.73
2023-03-21T21:17:23.864Z,57.61
2023-03-21T21:19:52.499Z,58.11
2023-03-21T21:22:19.154Z,58.84
2023-03-21T21:24:45.620Z,58.75
2023-03-21T21:27:12.038Z,58.93
2023-03-21T21:29:38.752Z,59.46
2023-03-21T21:32:05.340Z,59.75
2023-03-21T21:34:32.093Z,59.75
2023-03-21T21:36:58.657Z,59.63
2023-03-21T21:39:26.540Z,59.43
2023-03-21T21:41:53.836Z,60.13
2023-03-21T21:44:20.590Z,60.39
2023-03-21T21:46:47.243Z,60.39
2023-03-21T21:49:13.821Z,60.06
2023-03-21T21:51:41.823Z,60.43
2023-03-21T21:54:08.386Z,59.87
2023-03-21T21:56:36.951Z,60.33
2023-03-21T21:59:04.477Z,59.90
2023-03-21T22:01:34.710Z,60.35
2023-03-21T22:04:06.431Z,60.54
2023-03-21T22:06:34.493Z,60.47
2023-03-21T22:09:03.802Z,60.73
2023-03-21T22:11:30.422Z,60.93
2023-03-21T22:13:56.957Z,61.27
2023-03-21T22:16:23.477Z,61.75
2023-03-21T22:18:49.953Z,59.07
2023-03-21T22:21:16.464Z,58.81
2023-03-21T22:23:42.884Z,58.25
2023-03-21T22:26:10.132Z,58.38
2023-03-21T22:28:40.079Z,59.04
2023-03-21T22:31:13.051Z,58.56
2023-03-21T22:33:39.592Z,58.28
2023-03-21T22:36:06.388Z,58.46
2023-03-21T22:38:34.529Z,58.71
2023-03-21T22:41:04.758Z,58.83
2023-03-21T22:43:35.233Z,58.99
2023-03-21T22:46:03.787Z,58.71
2023-03-21T22:48:30.904Z,58.99
2023-03-21T22:50:59.424Z,59.04
2023-03-21T22:53:26.050Z,58.29
2023-03-21T22:55:52.582Z,58.00
2023-03-21T22:58:19.131Z,57.80
2023-03-21T23:00:45.830Z,57.60
2023-03-21T23:03:14.456Z,57.83
2023-03-21T23:05:41.475Z,57.39
2023-03-21T23:08:08.336Z,57.58
2023-03-21T23:10:38.126Z,56.87
2023-03-21T23:13:04.784Z,56.92
2023-03-21T23:15:31.248Z,56.37
2023-03-21T23:17:57.684Z,56.07
2023-03-21T23:20:24.105Z,57.01
2023-03-21T23:22:50.549Z,56.53
2023-03-21T23:25:17.017Z,56.11
2023-03-21T23:27:43.460Z,55.84
2023-03-21T23:30:10.207Z,56.38
2023-03-21T23:32:36.814Z,55.96
2023-03-21T23:35:03.773Z,55.81
2023-03-21T23:37:30.200Z,55.43
2023-03-21T23:39:56.621Z,55.68
2023-03-21T23:42:25.056Z,55.71
2023-03-21T23:44:51.502Z,56.26
2023-03-21T23:47:17.944Z,56.82
2023-03-21T23:49:49.870Z,56.82
2023-03-21T23:52:16.323Z,56.75
2023-03-21T23:54:42.854Z,56.57
2023-03-21T23:57:09.324Z,57.05
2023-03-21T23:59:35.801Z,56.61
